sensor_id;sensor_type;location;lat;lon;timestamp;P1;durP1;ratioP1;P2;durP2;ratioP2
80926;SDS011;70385;44.538;18.532;2023-07-08T00:01:14;24.70;;;13.07;;
80926;SDS011;70385;44.538;18.532;2023-07-08T00:03:44;20.05;;;13.27;;
80926;SDS011;70385;44.538;18.532;2023-07-08T00:06:16;19.10;;;12.40;;
80926;SDS011;70385;44.538;18.532;2023-07-08T00:08:49;20.60;;;13.38;;
80926;SDS011;70385;44.538;18.532;2023-07-08T00:11:15;23.63;;;13.48;;
80926;SDS011;70385;44.538;18.532;2023-07-08T00:13:42;20.45;;;13.10;;
80926;SDS011;70385;44.538;18.532;2023-07-08T00:16:12;21.50;;;13.30;;
80926;SDS011;70385;44.538;18.532;2023-07-08T00:18:43;25.15;;;13.45;;
80926;SDS011;70385;44.538;18.532;2023-07-08T00:21:10;22.27;;;13.30;;
80926;SDS011;70385;44.538;18.532;2023-07-08T00:23:43;23.85;;;12.93;;
80926;SDS011;70385;44.538;18.532;2023-07-08T00:26:17;23.35;;;14.55;;
80926;SDS011;70385;44.538;18.532;2023-07-08T00:28:48;21.05;;;12.75;;
80926;SDS011;70385;44.538;18.532;2023-07-08T00:31:15;25.73;;;12.70;;
80926;SDS011;70385;44.538;18.532;2023-07-08T00:33:41;23.38;;;13.88;;
80926;SDS011;70385;44.538;18.532;2023-07-08T00:36:13;22.85;;;13.88;;
80926;SDS011;70385;44.538;18.532;2023-07-08T00:38:40;22.35;;;13.77;;
80926;SDS011;70385;44.538;18.532;2023-07-08T00:43:48;24.67;;;16.02;;
80926;SDS011;70385;44.538;18.532;2023-07-08T00:49:19;21.77;;;14.52;;
80926;SDS011;70385;44.538;18.532;2023-07-08T00:51:49;20.27;;;13.30;;
80926;SDS011;70385;44.538;18.532;2023-07-08T00:54:17;25.63;;;14.13;;
80926;SDS011;70385;44.538;18.532;2023-07-08T00:59:28;20.98;;;13.75;;
80926;SDS011;70385;44.538;18.532;2023-07-08T01:01:57;19.75;;;13.38;;
80926;SDS011;70385;44.538;18.532;2023-07-08T01:04:32;28.25;;;13.23;;
80926;SDS011;70385;44.538;18.532;2023-07-08T01:07:09;22.52;;;13.45;;
80926;SDS011;70385;44.538;18.532;2023-07-08T01:09:37;19.58;;;12.95;;
80926;SDS011;70385;44.538;18.532;2023-07-08T01:12:11;18.00;;;12.00;;
80926;SDS011;70385;44.538;18.532;2023-07-08T01:14:44;20.75;;;12.05;;
80926;SDS011;70385;44.538;18.532;2023-07-08T01:17:11;25.30;;;12.27;;
80926;SDS011;70385;44.538;18.532;2023-07-08T01:19:41;20.05;;;12.25;;
80926;SDS011;70385;44.538;18.532;2023-07-08T01:22:09;19.20;;;12.02;;
80926;SDS011;70385;44.538;18.532;2023-07-08T01:24:37;16.98;;;12.07;;
80926;SDS011;70385;44.538;18.532;2023-07-08T01:27:06;24.80;;;13.52;;
80926;SDS011;70385;44.538;18.532;2023-07-08T01:29:35;16.95;;;10.85;;
80926;SDS011;70385;44.538;18.532;2023-07-08T01:32:01;21.83;;;12.10;;
80926;SDS011;70385;44.538;18.532;2023-07-08T01:34:28;17.25;;;12.10;;
80926;SDS011;70385;44.538;18.532;2023-07-08T01:36:55;16.90;;;10.68;;
80926;SDS011;70385;44.538;18.532;2023-07-08T01:39:24;16.83;;;10.80;;
80926;SDS011;70385;44.538;18.532;2023-07-08T01:41:51;18.23;;;11.40;;
80926;SDS011;70385;44.538;18.532;2023-07-08T01:44:28;19.27;;;11.68;;
80926;SDS011;70385;44.538;18.532;2023-07-08T01:47:00;20.00;;;13.38;;
80926;SDS011;70385;44.538;18.532;2023-07-08T01:49:31;18.20;;;10.95;;
80926;SDS011;70385;44.538;18.532;2023-07-08T01:52:01;19.92;;;12.15;;
80926;SDS011;70385;44.538;18.532;2023-07-08T01:54:27;23.02;;;12.20;;
80926;SDS011;70385;44.538;18.532;2023-07-08T01:56:56;24.80;;;12.95;;
80926;SDS011;70385;44.538;18.532;2023-07-08T01:59:22;22.58;;;12.95;;
80926;SDS011;70385;44.538;18.532;2023-07-08T02:01:49;21.17;;;12.52;;
80926;SDS011;70385;44.538;18.532;2023-07-08T02:04:20;25.88;;;15.10;;
80926;SDS011;70385;44.538;18.532;2023-07-08T02:06:50;24.05;;;13.73;;
80926;SDS011;70385;44.538;18.532;2023-07-08T02:09:20;16.98;;;12.23;;
80926;SDS011;70385;44.538;18.532;2023-07-08T02:11:45;18.33;;;12.98;;
80926;SDS011;70385;44.538;18.532;2023-07-08T02:14:11;22.60;;;12.80;;
80926;SDS011;70385;44.538;18.532;2023-07-08T02:16:37;18.95;;;12.52;;
80926;SDS011;70385;44.538;18.532;2023-07-08T02:19:03;20.02;;;12.43;;
80926;SDS011;70385;44.538;18.532;2023-07-08T02:21:30;21.48;;;13.45;;
80926;SDS011;70385;44.538;18.532;2023-07-08T02:23:57;19.90;;;12.65;;
80926;SDS011;70385;44.538;18.532;2023-07-08T02:26:23;24.42;;;13.73;;
80926;SDS011;70385;44.538;18.532;2023-07-08T02:28:49;21.50;;;14.25;;
80926;SDS011;70385;44.538;18.532;2023-07-08T02:31:16;23.02;;;13.93;;
80926;SDS011;70385;44.538;18.532;2023-07-08T02:33:43;23.73;;;13.35;;
80926;SDS011;70385;44.538;18.532;2023-07-08T02:36:10;20.80;;;12.88;;
80926;SDS011;70385;44.538;18.532;2023-07-08T02:38:36;22.00;;;12.55;;
80926;SDS011;70385;44.538;18.532;2023-07-08T02:41:02;16.15;;;10.95;;
80926;SDS011;70385;44.538;18.532;2023-07-08T02:43:28;18.80;;;11.52;;
80926;SDS011;70385;44.538;18.532;2023-07-08T02:45:53;19.00;;;10.73;;
80926;SDS011;70385;44.538;18.532;2023-07-08T02:48:20;21.02;;;12.23;;
80926;SDS011;70385;44.538;18.532;2023-07-08T02:50:48;21.90;;;12.73;;
80926;SDS011;70385;44.538;18.532;2023-07-08T02:53:14;23.50;;;13.90;;
80926;SDS011;70385;44.538;18.532;2023-07-08T02:55:40;19.17;;;11.77;;
80926;SDS011;70385;44.538;18.532;2023-07-08T02:58:08;13.63;;;9.43;;
80926;SDS011;70385;44.538;18.532;2023-07-08T03:00:35;15.35;;;8.88;;
80926;SDS011;70385;44.538;18.532;2023-07-08T03:03:03;15.45;;;9.43;;
80926;SDS011;70385;44.538;18.532;2023-07-08T03:05:29;14.07;;;9.38;;
80926;SDS011;70385;44.538;18.532;2023-07-08T03:07:56;15.88;;;9.82;;
80926;SDS011;70385;44.538;18.532;2023-07-08T03:10:21;16.05;;;10.27;;
80926;SDS011;70385;44.538;18.532;2023-07-08T03:12:47;19.45;;;10.60;;
80926;SDS011;70385;44.538;18.532;2023-07-08T03:15:13;16.70;;;9.85;;
80926;SDS011;70385;44.538;18.532;2023-07-08T03:17:39;15.60;;;10.02;;
80926;SDS011;70385;44.538;18.532;2023-07-08T03:20:06;16.25;;;9.18;;
80926;SDS011;70385;44.538;18.532;2023-07-08T03:22:33;18.70;;;10.30;;
80926;SDS011;70385;44.538;18.532;2023-07-08T03:24:58;19.15;;;9.80;;
80926;SDS011;70385;44.538;18.532;2023-07-08T03:27:24;19.50;;;10.00;;
80926;SDS011;70385;44.538;18.532;2023-07-08T03:29:50;17.33;;;9.45;;
80926;SDS011;70385;44.538;18.532;2023-07-08T03:32:16;21.10;;;11.77;;
80926;SDS011;70385;44.538;18.532;2023-07-08T03:34:42;18.48;;;10.48;;
80926;SDS011;70385;44.538;18.532;2023-07-08T03:37:08;20.70;;;10.57;;
80926;SDS011;70385;44.538;18.532;2023-07-08T03:39:34;15.93;;;9.75;;
80926;SDS011;70385;44.538;18.532;2023-07-08T03:42:01;19.40;;;10.23;;
80926;SDS011;70385;44.538;18.532;2023-07-08T03:44:27;20.83;;;10.80;;
80926;SDS011;70385;44.538;18.532;2023-07-08T03:46:53;19.55;;;11.30;;
80926;SDS011;70385;44.538;18.532;2023-07-08T03:49:20;17.13;;;10.40;;
80926;SDS011;70385;44.538;18.532;2023-07-08T03:51:48;20.48;;;10.23;;
80926;SDS011;70385;44.538;18.532;2023-07-08T03:54:17;15.70;;;9.60;;
80926;SDS011;70385;44.538;18.532;2023-07-08T03:56:45;18.27;;;10.48;;
80926;SDS011;70385;44.538;18.532;2023-07-08T03:59:12;14.93;;;9.25;;
80926;SDS011;70385;44.538;18.532;2023-07-08T04:01:38;15.90;;;9.60;;
80926;SDS011;70385;44.538;18.532;2023-07-08T04:04:08;14.25;;;9.15;;
80926;SDS011;70385;44.538;18.532;2023-07-08T04:06:38;18.48;;;9.95;;
80926;SDS011;70385;44.538;18.532;2023-07-08T04:09:05;17.30;;;9.52;;
80926;SDS011;70385;44.538;18.532;2023-07-08T04:11:32;17.70;;;9.77;;
80926;SDS011;70385;44.538;18.532;2023-07-08T04:13:57;17.77;;;10.10;;
80926;SDS011;70385;44.538;18.532;2023-07-08T04:16:31;15.80;;;9.68;;
80926;SDS011;70385;44.538;18.532;2023-07-08T04:19:07;14.50;;;9.68;;
80926;SDS011;70385;44.538;18.532;2023-07-08T04:21:40;20.05;;;10.00;;
80926;SDS011;70385;44.538;18.532;2023-07-08T04:24:11;20.45;;;9.00;;
80926;SDS011;70385;44.538;18.532;2023-07-08T04:26:42;17.95;;;9.60;;
80926;SDS011;70385;44.538;18.532;2023-07-08T04:29:12;18.08;;;9.95;;
80926;SDS011;70385;44.538;18.532;2023-07-08T04:31:39;18.75;;;10.70;;
80926;SDS011;70385;44.538;18.532;2023-07-08T04:34:07;18.30;;;10.48;;
80926;SDS011;70385;44.538;18.532;2023-07-08T04:36:35;17.55;;;10.30;;
80926;SDS011;70385;44.538;18.532;2023-07-08T04:39:05;17.13;;;9.88;;
80926;SDS011;70385;44.538;18.532;2023-07-08T04:41:32;18.63;;;9.90;;
80926;SDS011;70385;44.538;18.532;2023-07-08T04:43:58;17.17;;;10.48;;
80926;SDS011;70385;44.538;18.532;2023-07-08T04:46:37;22.75;;;10.40;;
80926;SDS011;70385;44.538;18.532;2023-07-08T04:49:12;19.80;;;10.52;;
80926;SDS011;70385;44.538;18.532;2023-07-08T04:51:41;22.17;;;10.15;;
80926;SDS011;70385;44.538;18.532;2023-07-08T04:54:07;21.80;;;10.77;;
80926;SDS011;70385;44.538;18.532;2023-07-08T04:56:44;19.55;;;10.05;;
80926;SDS011;70385;44.538;18.532;2023-07-08T04:59:16;16.48;;;10.10;;
80926;SDS011;70385;44.538;18.532;2023-07-08T05:01:44;19.45;;;10.05;;
80926;SDS011;70385;44.538;18.532;2023-07-08T05:04:14;13.45;;;8.45;;
80926;SDS011;70385;44.538;18.532;2023-07-08T05:06:41;20.15;;;10.02;;
80926;SDS011;70385;44.538;18.532;2023-07-08T05:09:08;17.42;;;9.82;;
80926;SDS011;70385;44.538;18.532;2023-07-08T05:11:34;23.88;;;9.55;;
80926;SDS011;70385;44.538;18.532;2023-07-08T05:14:00;21.17;;;9.77;;
80926;SDS011;70385;44.538;18.532;2023-07-08T05:16:27;16.65;;;10.10;;
80926;SDS011;70385;44.538;18.532;2023-07-08T05:18:53;24.35;;;10.88;;
80926;SDS011;70385;44.538;18.532;2023-07-08T05:21:19;18.60;;;10.60;;
80926;SDS011;70385;44.538;18.532;2023-07-08T05:23:46;20.02;;;10.15;;
80926;SDS011;70385;44.538;18.532;2023-07-08T05:26:15;14.77;;;10.57;;
80926;SDS011;70385;44.538;18.532;2023-07-08T05:28:41;15.27;;;9.70;;
80926;SDS011;70385;44.538;18.532;2023-07-08T05:31:07;19.60;;;10.30;;
80926;SDS011;70385;44.538;18.532;2023-07-08T05:33:33;17.52;;;9.43;;
80926;SDS011;70385;44.538;18.532;2023-07-08T05:36:00;13.98;;;9.07;;
80926;SDS011;70385;44.538;18.532;2023-07-08T05:38:26;14.75;;;8.52;;
80926;SDS011;70385;44.538;18.532;2023-07-08T05:40:56;16.02;;;10.10;;
80926;SDS011;70385;44.538;18.532;2023-07-08T05:43:23;20.67;;;10.55;;
80926;SDS011;70385;44.538;18.532;2023-07-08T05:45:50;13.85;;;9.35;;
80926;SDS011;70385;44.538;18.532;2023-07-08T05:48:18;18.48;;;9.68;;
80926;SDS011;70385;44.538;18.532;2023-07-08T05:50:44;14.98;;;8.35;;
80926;SDS011;70385;44.538;18.532;2023-07-08T05:53:11;13.13;;;9.02;;
80926;SDS011;70385;44.538;18.532;2023-07-08T05:55:37;14.63;;;8.65;;
80926;SDS011;70385;44.538;18.532;2023-07-08T05:58:04;15.35;;;9.68;;
80926;SDS011;70385;44.538;18.532;2023-07-08T06:00:30;13.82;;;8.05;;
80926;SDS011;70385;44.538;18.532;2023-07-08T06:02:56;15.63;;;8.65;;
80926;SDS011;70385;44.538;18.532;2023-07-08T06:05:22;16.10;;;8.40;;
80926;SDS011;70385;44.538;18.532;2023-07-08T06:07:47;17.17;;;7.90;;
80926;SDS011;70385;44.538;18.532;2023-07-08T06:10:14;14.20;;;7.65;;
80926;SDS011;70385;44.538;18.532;2023-07-08T06:12:41;23.73;;;8.35;;
80926;SDS011;70385;44.538;18.532;2023-07-08T06:15:08;14.90;;;8.20;;
80926;SDS011;70385;44.538;18.532;2023-07-08T06:17:34;22.15;;;10.02;;
80926;SDS011;70385;44.538;18.532;2023-07-08T06:20:00;21.23;;;9.38;;
80926;SDS011;70385;44.538;18.532;2023-07-08T06:22:27;28.70;;;9.73;;
80926;SDS011;70385;44.538;18.532;2023-07-08T06:24:53;30.33;;;10.40;;
80926;SDS011;70385;44.538;18.532;2023-07-08T06:27:18;28.00;;;9.80;;
80926;SDS011;70385;44.538;18.532;2023-07-08T06:29:44;30.00;;;10.85;;
80926;SDS011;70385;44.538;18.532;2023-07-08T06:32:10;25.88;;;10.15;;
80926;SDS011;70385;44.538;18.532;2023-07-08T06:34:36;23.80;;;10.63;;
80926;SDS011;70385;44.538;18.532;2023-07-08T06:37:02;29.95;;;11.13;;
80926;SDS011;70385;44.538;18.532;2023-07-08T06:39:29;32.58;;;11.70;;
80926;SDS011;70385;44.538;18.532;2023-07-08T06:41:55;29.88;;;11.32;;
80926;SDS011;70385;44.538;18.532;2023-07-08T06:44:25;34.40;;;12.75;;
80926;SDS011;70385;44.538;18.532;2023-07-08T06:46:54;30.02;;;11.50;;
80926;SDS011;70385;44.538;18.532;2023-07-08T06:49:19;28.33;;;11.00;;
80926;SDS011;70385;44.538;18.532;2023-07-08T06:51:45;29.02;;;11.23;;
80926;SDS011;70385;44.538;18.532;2023-07-08T06:54:11;27.83;;;10.52;;
80926;SDS011;70385;44.538;18.532;2023-07-08T06:56:40;27.58;;;10.93;;
80926;SDS011;70385;44.538;18.532;2023-07-08T06:59:07;32.85;;;10.73;;
80926;SDS011;70385;44.538;18.532;2023-07-08T07:01:33;32.83;;;11.20;;
80926;SDS011;70385;44.538;18.532;2023-07-08T07:04:00;29.58;;;10.43;;
80926;SDS011;70385;44.538;18.532;2023-07-08T07:06:26;24.73;;;9.85;;
80926;SDS011;70385;44.538;18.532;2023-07-08T07:08:52;34.17;;;11.63;;
80926;SDS011;70385;44.538;18.532;2023-07-08T07:11:18;27.92;;;10.95;;
80926;SDS011;70385;44.538;18.532;2023-07-08T07:13:45;27.63;;;9.73;;
80926;SDS011;70385;44.538;18.532;2023-07-08T07:16:11;23.15;;;9.70;;
80926;SDS011;70385;44.538;18.532;2023-07-08T07:18:39;16.92;;;8.88;;
80926;SDS011;70385;44.538;18.532;2023-07-08T07:21:05;28.48;;;9.10;;
80926;SDS011;70385;44.538;18.532;2023-07-08T07:23:30;15.93;;;7.60;;
80926;SDS011;70385;44.538;18.532;2023-07-08T07:25:56;14.10;;;8.07;;
80926;SDS011;70385;44.538;18.532;2023-07-08T07:28:23;11.55;;;6.72;;
80926;SDS011;70385;44.538;18.532;2023-07-08T07:30:55;15.48;;;8.20;;
80926;SDS011;70385;44.538;18.532;2023-07-08T07:33:23;19.75;;;8.60;;
80926;SDS011;70385;44.538;18.532;2023-07-08T07:35:50;19.45;;;8.43;;
80926;SDS011;70385;44.538;18.532;2023-07-08T07:38:16;21.27;;;8.73;;
80926;SDS011;70385;44.538;18.532;2023-07-08T07:40:42;16.30;;;8.45;;
80926;SDS011;70385;44.538;18.532;2023-07-08T07:43:09;28.08;;;9.60;;
80926;SDS011;70385;44.538;18.532;2023-07-08T07:45:37;15.98;;;8.80;;
80926;SDS011;70385;44.538;18.532;2023-07-08T07:48:03;15.15;;;8.60;;
80926;SDS011;70385;44.538;18.532;2023-07-08T07:50:29;20.17;;;8.88;;
80926;SDS011;70385;44.538;18.532;2023-07-08T07:52:56;20.05;;;9.55;;
80926;SDS011;70385;44.538;18.532;2023-07-08T07:55:22;15.13;;;8.20;;
80926;SDS011;70385;44.538;18.532;2023-07-08T07:57:48;18.63;;;8.73;;
80926;SDS011;70385;44.538;18.532;2023-07-08T08:00:14;16.50;;;8.32;;
80926;SDS011;70385;44.538;18.532;2023-07-08T08:02:42;20.45;;;9.18;;
80926;SDS011;70385;44.538;18.532;2023-07-08T08:05:09;17.63;;;9.77;;
80926;SDS011;70385;44.538;18.532;2023-07-08T08:07:34;18.85;;;9.15;;
80926;SDS011;70385;44.538;18.532;2023-07-08T08:10:02;22.33;;;11.23;;
80926;SDS011;70385;44.538;18.532;2023-07-08T08:12:29;23.70;;;11.90;;
80926;SDS011;70385;44.538;18.532;2023-07-08T08:14:54;26.08;;;11.93;;
80926;SDS011;70385;44.538;18.532;2023-07-08T08:17:21;35.83;;;16.05;;
80926;SDS011;70385;44.538;18.532;2023-07-08T08:19:46;42.60;;;15.88;;
80926;SDS011;70385;44.538;18.532;2023-07-08T08:22:12;36.30;;;16.17;;
80926;SDS011;70385;44.538;18.532;2023-07-08T08:24:41;41.35;;;18.35;;
80926;SDS011;70385;44.538;18.532;2023-07-08T08:27:07;46.13;;;21.95;;
80926;SDS011;70385;44.538;18.532;2023-07-08T08:29:32;47.05;;;23.15;;
80926;SDS011;70385;44.538;18.532;2023-07-08T08:31:59;43.60;;;18.92;;
80926;SDS011;70385;44.538;18.532;2023-07-08T08:34:28;54.95;;;23.55;;
80926;SDS011;70385;44.538;18.532;2023-07-08T08:36:55;61.35;;;24.90;;
80926;SDS011;70385;44.538;18.532;2023-07-08T08:39:21;60.28;;;25.58;;
80926;SDS011;70385;44.538;18.532;2023-07-08T08:41:49;58.83;;;26.75;;
80926;SDS011;70385;44.538;18.532;2023-07-08T08:44:20;56.38;;;25.63;;
80926;SDS011;70385;44.538;18.532;2023-07-08T08:46:58;58.45;;;24.67;;
80926;SDS011;70385;44.538;18.532;2023-07-08T08:50:00;71.88;;;30.42;;
80926;SDS011;70385;44.538;18.532;2023-07-08T08:52:45;59.33;;;25.73;;
80926;SDS011;70385;44.538;18.532;2023-07-08T08:55:12;60.53;;;26.70;;
80926;SDS011;70385;44.538;18.532;2023-07-08T08:57:48;68.18;;;28.95;;
80926;SDS011;70385;44.538;18.532;2023-07-08T09:00:30;69.88;;;29.38;;
80926;SDS011;70385;44.538;18.532;2023-07-08T09:03:07;66.13;;;28.17;;
80926;SDS011;70385;44.538;18.532;2023-07-08T09:05:38;70.93;;;29.02;;
80926;SDS011;70385;44.538;18.532;2023-07-08T09:08:05;82.40;;;28.63;;
80926;SDS011;70385;44.538;18.532;2023-07-08T09:13:17;69.38;;;24.08;;
80926;SDS011;70385;44.538;18.532;2023-07-08T09:15:48;65.53;;;24.10;;
80926;SDS011;70385;44.538;18.532;2023-07-08T09:18:21;54.65;;;23.23;;
80926;SDS011;70385;44.538;18.532;2023-07-08T09:20:53;51.28;;;20.45;;
80926;SDS011;70385;44.538;18.532;2023-07-08T09:23:28;46.33;;;20.40;;
80926;SDS011;70385;44.538;18.532;2023-07-08T09:26:07;43.05;;;20.02;;
80926;SDS011;70385;44.538;18.532;2023-07-08T09:28:50;55.13;;;20.73;;
80926;SDS011;70385;44.538;18.532;2023-07-08T09:31:21;38.58;;;16.67;;
80926;SDS011;70385;44.538;18.532;2023-07-08T09:33:50;42.22;;;17.38;;
80926;SDS011;70385;44.538;18.532;2023-07-08T09:36:18;45.17;;;18.88;;
80926;SDS011;70385;44.538;18.532;2023-07-08T09:38:48;40.80;;;18.17;;
80926;SDS011;70385;44.538;18.532;2023-07-08T09:41:49;33.55;;;14.80;;
80926;SDS011;70385;44.538;18.532;2023-07-08T09:46:44;29.73;;;10.75;;
80926;SDS011;70385;44.538;18.532;2023-07-08T09:51:54;26.05;;;9.82;;
80926;SDS011;70385;44.538;18.532;2023-07-08T09:54:21;20.02;;;9.52;;
80926;SDS011;70385;44.538;18.532;2023-07-08T10:02:51;26.42;;;9.55;;
80926;SDS011;70385;44.538;18.532;2023-07-08T10:05:33;21.02;;;7.88;;
80926;SDS011;70385;44.538;18.532;2023-07-08T10:08:02;20.52;;;9.02;;
80926;SDS011;70385;44.538;18.532;2023-07-08T10:10:58;23.05;;;8.82;;
80926;SDS011;70385;44.538;18.532;2023-07-08T10:16:24;29.42;;;8.10;;
80926;SDS011;70385;44.538;18.532;2023-07-08T10:18:53;14.93;;;6.75;;
80926;SDS011;70385;44.538;18.532;2023-07-08T10:24:28;15.95;;;7.15;;
80926;SDS011;70385;44.538;18.532;2023-07-08T10:35:31;12.90;;;6.47;;
80926;SDS011;70385;44.538;18.532;2023-07-08T10:43:42;13.00;;;5.95;;
80926;SDS011;70385;44.538;18.532;2023-07-08T10:49:01;12.38;;;6.88;;
80926;SDS011;70385;44.538;18.532;2023-07-08T10:55:17;17.20;;;6.57;;
80926;SDS011;70385;44.538;18.532;2023-07-08T11:03:59;15.65;;;6.28;;
80926;SDS011;70385;44.538;18.532;2023-07-08T11:06:59;12.00;;;6.18;;
80926;SDS011;70385;44.538;18.532;2023-07-08T11:09:36;13.90;;;6.53;;
80926;SDS011;70385;44.538;18.532;2023-07-08T11:17:39;12.30;;;6.40;;
80926;SDS011;70385;44.538;18.532;2023-07-08T11:20:31;9.82;;;5.97;;
80926;SDS011;70385;44.538;18.532;2023-07-08T11:25:54;20.63;;;8.30;;
80926;SDS011;70385;44.538;18.532;2023-07-08T11:28:45;26.63;;;8.20;;
80926;SDS011;70385;44.538;18.532;2023-07-08T11:31:14;10.43;;;6.00;;
80926;SDS011;70385;44.538;18.532;2023-07-08T11:33:41;10.93;;;5.65;;
80926;SDS011;70385;44.538;18.532;2023-07-08T11:36:08;10.68;;;5.35;;
80926;SDS011;70385;44.538;18.532;2023-07-08T11:38:36;10.18;;;6.10;;
80926;SDS011;70385;44.538;18.532;2023-07-08T11:41:13;10.45;;;6.13;;
80926;SDS011;70385;44.538;18.532;2023-07-08T11:43:48;13.35;;;6.32;;
80926;SDS011;70385;44.538;18.532;2023-07-08T11:46:20;13.25;;;5.60;;
80926;SDS011;70385;44.538;18.532;2023-07-08T11:48:53;9.02;;;5.70;;
80926;SDS011;70385;44.538;18.532;2023-07-08T11:51:29;10.25;;;6.13;;
80926;SDS011;70385;44.538;18.532;2023-07-08T11:54:02;17.38;;;5.60;;
80926;SDS011;70385;44.538;18.532;2023-07-08T11:59:32;10.27;;;6.07;;
80926;SDS011;70385;44.538;18.532;2023-07-08T12:05:11;12.15;;;5.90;;
80926;SDS011;70385;44.538;18.532;2023-07-08T12:10:11;10.27;;;6.05;;
80926;SDS011;70385;44.538;18.532;2023-07-08T12:12:39;7.32;;;4.65;;
80926;SDS011;70385;44.538;18.532;2023-07-08T12:15:29;8.02;;;4.63;;
80926;SDS011;70385;44.538;18.532;2023-07-08T12:17:56;10.30;;;5.03;;
80926;SDS011;70385;44.538;18.532;2023-07-08T12:20:31;10.30;;;4.45;;
80926;SDS011;70385;44.538;18.532;2023-07-08T12:23:00;7.88;;;4.97;;
80926;SDS011;70385;44.538;18.532;2023-07-08T12:25:30;11.68;;;5.00;;
80926;SDS011;70385;44.538;18.532;2023-07-08T12:28:00;7.80;;;4.55;;
80926;SDS011;70385;44.538;18.532;2023-07-08T12:30:28;8.55;;;4.15;;
80926;SDS011;70385;44.538;18.532;2023-07-08T12:33:02;6.85;;;4.95;;
80926;SDS011;70385;44.538;18.532;2023-07-08T12:35:34;10.52;;;4.38;;
80926;SDS011;70385;44.538;18.532;2023-07-08T12:38:06;8.90;;;4.68;;
80926;SDS011;70385;44.538;18.532;2023-07-08T12:41:14;7.82;;;4.47;;
80926;SDS011;70385;44.538;18.532;2023-07-08T12:43:44;5.88;;;4.63;;
80926;SDS011;70385;44.538;18.532;2023-07-08T12:46:12;7.82;;;4.50;;
80926;SDS011;70385;44.538;18.532;2023-07-08T12:48:41;8.55;;;5.00;;
80926;SDS011;70385;44.538;18.532;2023-07-08T12:51:12;9.38;;;4.55;;
80926;SDS011;70385;44.538;18.532;2023-07-08T12:53:43;8.18;;;4.55;;
80926;SDS011;70385;44.538;18.532;2023-07-08T12:56:10;9.45;;;4.97;;
80926;SDS011;70385;44.538;18.532;2023-07-08T12:58:40;8.43;;;4.93;;
80926;SDS011;70385;44.538;18.532;2023-07-08T13:01:08;13.55;;;5.38;;
80926;SDS011;70385;44.538;18.532;2023-07-08T13:03:41;11.65;;;5.40;;
80926;SDS011;70385;44.538;18.532;2023-07-08T13:06:09;9.55;;;5.13;;
80926;SDS011;70385;44.538;18.532;2023-07-08T13:08:38;7.65;;;5.10;;
80926;SDS011;70385;44.538;18.532;2023-07-08T13:11:05;11.43;;;5.28;;
80926;SDS011;70385;44.538;18.532;2023-07-08T13:13:36;8.15;;;5.00;;
80926;SDS011;70385;44.538;18.532;2023-07-08T13:16:05;7.82;;;4.85;;
80926;SDS011;70385;44.538;18.532;2023-07-08T13:18:34;9.32;;;5.03;;
80926;SDS011;70385;44.538;18.532;2023-07-08T13:21:05;8.73;;;5.00;;
80926;SDS011;70385;44.538;18.532;2023-07-08T13:23:32;8.05;;;4.65;;
80926;SDS011;70385;44.538;18.532;2023-07-08T13:26:00;7.47;;;4.88;;
80926;SDS011;70385;44.538;18.532;2023-07-08T13:28:28;8.65;;;5.03;;
80926;SDS011;70385;44.538;18.532;2023-07-08T13:31:02;7.72;;;5.00;;
80926;SDS011;70385;44.538;18.532;2023-07-08T13:33:44;11.50;;;5.60;;
80926;SDS011;70385;44.538;18.532;2023-07-08T13:36:13;8.65;;;4.72;;
80926;SDS011;70385;44.538;18.532;2023-07-08T13:38:41;8.55;;;5.22;;
80926;SDS011;70385;44.538;18.532;2023-07-08T13:41:08;8.63;;;5.13;;
80926;SDS011;70385;44.538;18.532;2023-07-08T13:43:35;9.68;;;5.70;;
80926;SDS011;70385;44.538;18.532;2023-07-08T13:46:03;7.20;;;5.22;;
80926;SDS011;70385;44.538;18.532;2023-07-08T13:48:42;11.93;;;5.45;;
80926;SDS011;70385;44.538;18.532;2023-07-08T13:51:10;10.25;;;5.85;;
80926;SDS011;70385;44.538;18.532;2023-07-08T13:53:53;10.77;;;5.22;;
80926;SDS011;70385;44.538;18.532;2023-07-08T13:56:27;8.98;;;5.65;;
80926;SDS011;70385;44.538;18.532;2023-07-08T13:59:08;10.68;;;5.40;;
80926;SDS011;70385;44.538;18.532;2023-07-08T14:01:39;10.45;;;5.13;;
80926;SDS011;70385;44.538;18.532;2023-07-08T14:04:07;9.52;;;5.05;;
80926;SDS011;70385;44.538;18.532;2023-07-08T14:06:36;11.88;;;5.28;;
80926;SDS011;70385;44.538;18.532;2023-07-08T14:09:13;7.32;;;4.72;;
80926;SDS011;70385;44.538;18.532;2023-07-08T14:11:40;14.73;;;5.10;;
80926;SDS011;70385;44.538;18.532;2023-07-08T14:14:08;9.40;;;4.18;;
80926;SDS011;70385;44.538;18.532;2023-07-08T14:16:41;8.38;;;4.50;;
80926;SDS011;70385;44.538;18.532;2023-07-08T14:22:01;9.68;;;4.22;;
80926;SDS011;70385;44.538;18.532;2023-07-08T14:24:41;9.43;;;4.47;;
80926;SDS011;70385;44.538;18.532;2023-07-08T14:27:08;10.13;;;4.22;;
80926;SDS011;70385;44.538;18.532;2023-07-08T14:29:41;7.57;;;4.57;;
80926;SDS011;70385;44.538;18.532;2023-07-08T14:34:52;9.27;;;3.92;;
80926;SDS011;70385;44.538;18.532;2023-07-08T14:37:21;6.97;;;4.20;;
80926;SDS011;70385;44.538;18.532;2023-07-08T14:39:48;11.23;;;4.40;;
80926;SDS011;70385;44.538;18.532;2023-07-08T14:42:15;8.15;;;4.25;;
80926;SDS011;70385;44.538;18.532;2023-07-08T14:44:43;6.45;;;4.13;;
80926;SDS011;70385;44.538;18.532;2023-07-08T14:47:11;10.48;;;3.95;;
80926;SDS011;70385;44.538;18.532;2023-07-08T14:49:39;8.63;;;4.40;;
80926;SDS011;70385;44.538;18.532;2023-07-08T14:52:05;8.05;;;4.35;;
80926;SDS011;70385;44.538;18.532;2023-07-08T14:54:32;5.72;;;4.05;;
80926;SDS011;70385;44.538;18.532;2023-07-08T14:57:00;7.70;;;4.00;;
80926;SDS011;70385;44.538;18.532;2023-07-08T14:59:28;7.88;;;3.90;;
80926;SDS011;70385;44.538;18.532;2023-07-08T15:01:58;7.63;;;3.63;;
80926;SDS011;70385;44.538;18.532;2023-07-08T15:04:26;9.77;;;3.90;;
80926;SDS011;70385;44.538;18.532;2023-07-08T15:06:54;8.45;;;4.22;;
80926;SDS011;70385;44.538;18.532;2023-07-08T15:09:22;7.00;;;4.13;;
80926;SDS011;70385;44.538;18.532;2023-07-08T15:11:48;6.85;;;4.05;;
80926;SDS011;70385;44.538;18.532;2023-07-08T15:14:19;8.20;;;3.70;;
80926;SDS011;70385;44.538;18.532;2023-07-08T15:16:50;5.07;;;3.78;;
80926;SDS011;70385;44.538;18.532;2023-07-08T15:19:17;5.63;;;3.67;;
80926;SDS011;70385;44.538;18.532;2023-07-08T15:21:45;7.53;;;4.20;;
80926;SDS011;70385;44.538;18.532;2023-07-08T15:24:12;7.32;;;4.25;;
80926;SDS011;70385;44.538;18.532;2023-07-08T15:26:49;5.05;;;3.58;;
80926;SDS011;70385;44.538;18.532;2023-07-08T15:29:21;6.35;;;3.45;;
80926;SDS011;70385;44.538;18.532;2023-07-08T15:31:48;6.43;;;4.10;;
80926;SDS011;70385;44.538;18.532;2023-07-08T15:34:16;8.02;;;3.63;;
80926;SDS011;70385;44.538;18.532;2023-07-08T15:36:44;7.40;;;4.72;;
80926;SDS011;70385;44.538;18.532;2023-07-08T15:39:10;5.45;;;4.05;;
80926;SDS011;70385;44.538;18.532;2023-07-08T15:41:36;6.50;;;4.15;;
80926;SDS011;70385;44.538;18.532;2023-07-08T15:44:07;8.85;;;3.88;;
80926;SDS011;70385;44.538;18.532;2023-07-08T15:46:45;5.28;;;3.38;;
80926;SDS011;70385;44.538;18.532;2023-07-08T15:51:42;7.60;;;3.78;;